Time;durP1;ratioP1;P1;durP2;ratioP2;P2;SDS_P1;SDS_P2;PMS_P1;PMS_P2;Temp;Humidity;BMP_temperature;BMP_pressure;BME280_temperature;BME280_humidity;BME280_pressure;Samples;Min_cycle;Max_cycle;Signal;HPM_P1;HPM_P2
2023/07/21 00:01:53;;;;;;;16.52;13.40;;;15.90;86.70;;;;;;4993463;28;20042;-74
2023/07/21 00:04:20;;;;;;;16.25;14.57;;;15.90;86.70;;;;;;4991642;28;20030;-75
2023/07/21 00:06:46;;;;;;;16.70;14.90;;;15.90;86.60;;;;;;4994256;28;20053;-74
2023/07/21 00:09:12;;;;;;;16.75;15.05;;;15.80;86.70;;;;;;4991243;28;20089;-77
2023/07/21 00:11:38;;;;;;;17.73;16.00;;;15.80;86.80;;;;;;4990893;28;20049;-71
2023/07/21 00:14:10;;;;;;;17.58;15.77;;;15.70;86.90;;;;;;4987016;28;20027;-75
2023/07/21 00:16:35;;;;;;;19.10;17.17;;;15.70;87.00;;;;;;4989800;28;20158;-73
2023/07/21 00:19:01;;;;;;;20.08;18.08;;;15.60;87.10;;;;;;4986552;28;20575;-74
2023/07/21 00:21:28;;;;;;;16.83;15.23;;;15.60;87.20;;;;;;4988915;28;20027;-74
2023/07/21 00:23:54;;;;;;;17.38;15.52;;;15.60;87.40;;;;;;4989611;28;20026;-74
2023/07/21 00:26:20;;;;;;;19.08;17.08;;;15.60;87.40;;;;;;4988634;28;20061;-73
2023/07/21 00:28:46;;;;;;;19.55;17.60;;;15.60;87.40;;;;;;4984063;28;20062;-73
2023/07/21 00:31:13;;;;;;;19.42;17.42;;;15.60;87.60;;;;;;4989087;28;20403;-74
2023/07/21 00:33:39;;;;;;;19.88;17.80;;;15.50;87.50;;;;;;4986655;28;20593;-74
2023/07/21 00:36:05;;;;;;;20.45;18.15;;;15.60;87.40;;;;;;4987267;28;20125;-72
2023/07/21 00:38:31;;;;;;;20.63;18.55;;;15.60;87.50;;;;;;4987083;28;20105;-73
2023/07/21 00:40:57;;;;;;;19.33;17.52;;;15.50;87.60;;;;;;4985025;28;20158;-71
2023/07/21 00:43:23;;;;;;;21.20;19.13;;;15.50;87.70;;;;;;5001563;28;20109;-72
2023/07/21 00:45:49;;;;;;;19.45;17.45;;;15.50;87.60;;;;;;4989148;28;20046;-74
2023/07/21 00:48:19;;;;;;;19.17;17.17;;;15.50;87.70;;;;;;4995189;28;20351;-75
2023/07/21 00:50:52;;;;;;;17.33;15.63;;;15.50;87.70;;;;;;4999243;28;20050;-74
2023/07/21 00:53:19;;;;;;;18.20;16.50;;;15.50;87.60;;;;;;4987730;28;20030;-76
2023/07/21 00:55:47;;;;;;;17.02;15.32;;;15.50;87.40;;;;;;4989681;28;20092;-75
2023/07/21 00:58:14;;;;;;;16.67;14.98;;;15.40;87.30;;;;;;4985844;28;20118;-74
2023/07/21 01:00:40;;;;;;;16.83;15.13;;;15.40;87.40;;;;;;5004375;28;20351;-76
2023/07/21 01:03:08;;;;;;;16.58;14.90;;;15.40;87.40;;;;;;4992167;28;20493;-77
2023/07/21 01:05:38;;;;;;;17.08;15.35;;;15.30;87.50;;;;;;4991551;28;20112;-74
2023/07/21 01:08:04;;;;;;;16.58;14.88;;;15.30;87.40;;;;;;4992134;28;20386;-74
2023/07/21 01:10:33;;;;;;;15.35;13.68;;;15.30;87.50;;;;;;4995305;28;20053;-73
2023/07/21 01:13:00;;;;;;;16.15;14.55;;;15.30;87.50;;;;;;4986579;28;20034;-74
2023/07/21 01:15:27;;;;;;;15.18;13.68;;;15.20;87.50;;;;;;4992622;28;20034;-73
2023/07/21 01:17:54;;;;;;;16.65;14.57;;;15.20;87.50;;;;;;4989130;28;20026;-72
2023/07/21 01:20:24;;;;;;;16.98;15.32;;;15.10;87.60;;;;;;4988037;28;20050;-75
2023/07/21 01:23:06;;;;;;;17.77;15.88;;;15.10;87.60;;;;;;4990469;28;20311;-73
2023/07/21 01:25:35;;;;;;;17.13;15.38;;;15.10;87.60;;;;;;4993090;28;20080;-73
2023/07/21 01:28:02;;;;;;;15.90;14.30;;;15.00;87.70;;;;;;4988037;28;20061;-73
2023/07/21 01:30:29;;;;;;;15.15;13.48;;;15.00;87.70;;;;;;4989208;28;20046;-73
2023/07/21 01:32:56;;;;;;;14.95;13.52;;;15.00;87.60;;;;;;4989993;28;20034;-72
2023/07/21 01:35:23;;;;;;;15.73;14.13;;;15.00;87.70;;;;;;4989700;28;20035;-74
2023/07/21 01:37:49;;;;;;;16.52;14.68;;;15.00;87.70;;;;;;4992168;28;20026;-73
2023/07/21 01:40:16;;;;;;;16.92;15.13;;;15.10;87.80;;;;;;4986115;28;20042;-74
2023/07/21 01:42:44;;;;;;;16.13;14.32;;;15.00;87.80;;;;;;4986011;28;20503;-76
2023/07/21 01:45:11;;;;;;;17.08;15.30;;;15.10;87.80;;;;;;4986400;28;20030;-72
2023/07/21 01:47:37;;;;;;;17.88;16.08;;;15.00;87.80;;;;;;4984835;28;20467;-73
2023/07/21 01:50:06;;;;;;;16.73;15.02;;;15.00;87.80;;;;;;4985900;28;20030;-77
2023/07/21 01:52:35;;;;;;;18.33;16.42;;;15.00;87.80;;;;;;4989986;28;20096;-73
2023/07/21 01:55:24;;;;;;;16.77;15.18;;;15.00;87.80;;;;;;4996012;28;20118;-73
2023/07/21 01:58:05;;;;;;;17.33;15.38;;;15.00;87.70;;;;;;4996138;28;20034;-72
2023/07/21 02:00:39;;;;;;;17.40;15.70;;;14.90;87.60;;;;;;4990816;28;20069;-73
2023/07/21 02:03:05;;;;;;;16.52;14.93;;;14.80;87.50;;;;;;4988807;28;20034;-74
2023/07/21 02:05:32;;;;;;;17.88;16.00;;;14.80;87.40;;;;;;4990369;28;20136;-72
2023/07/21 02:07:58;;;;;;;18.85;16.95;;;14.80;87.40;;;;;;4996643;28;20471;-74
2023/07/21 02:10:23;;;;;;;17.30;15.32;;;14.80;87.50;;;;;;4992015;28;20122;-73
2023/07/21 02:12:49;;;;;;;17.85;16.05;;;14.80;87.60;;;;;;4987830;28;20479;-75
2023/07/21 02:15:15;;;;;;;19.40;17.60;;;14.80;87.80;;;;;;4996461;28;20037;-76
2023/07/21 02:17:41;;;;;;;18.05;16.15;;;14.70;88.00;;;;;;4992353;28;20022;-75
2023/07/21 02:20:09;;;;;;;18.30;16.40;;;14.70;88.00;;;;;;4992108;28;20117;-75
2023/07/21 02:22:40;;;;;;;18.45;16.63;;;14.70;88.10;;;;;;4987565;28;20034;-73
2023/07/21 02:25:07;;;;;;;17.50;15.75;;;14.70;88.10;;;;;;4988151;28;20027;-75
2023/07/21 02:27:33;;;;;;;15.82;14.23;;;14.70;88.20;;;;;;4992900;28;20028;-74
2023/07/21 02:30:03;;;;;;;16.98;15.23;;;14.70;88.30;;;;;;4992548;28;20065;-75
2023/07/21 02:32:29;;;;;;;19.45;16.90;;;14.70;88.40;;;;;;4986614;28;20034;-74
2023/07/21 02:34:58;;;;;;;18.63;16.77;;;14.70;88.50;;;;;;4994162;28;20086;-74
2023/07/21 02:37:24;;;;;;;17.38;15.68;;;14.70;88.40;;;;;;4988857;28;20133;-75
2023/07/21 02:39:50;;;;;;;16.67;15.07;;;14.70;88.30;;;;;;4994660;28;20058;-74
2023/07/21 02:42:16;;;;;;;17.33;15.68;;;14.70;88.30;;;;;;4983246;28;20112;-74
2023/07/21 02:44:42;;;;;;;17.52;15.82;;;14.70;88.30;;;;;;4998204;28;20105;-74
2023/07/21 02:47:08;;;;;;;18.23;16.42;;;14.70;88.40;;;;;;4992393;28;20130;-77
2023/07/21 02:49:33;;;;;;;17.17;15.40;;;14.60;88.50;;;;;;4996632;28;20033;-72
2023/07/21 02:51:59;;;;;;;24.20;17.02;;;14.60;88.40;;;;;;4992736;28;20056;-73
2023/07/21 02:54:25;;;;;;;17.08;15.38;;;14.60;88.30;;;;;;4990755;28;20037;-75
2023/07/21 02:56:51;;;;;;;16.10;14.50;;;14.60;88.50;;;;;;4996554;28;20035;-75
2023/07/21 02:59:17;;;;;;;17.75;15.75;;;14.50;88.50;;;;;;4992340;28;20110;-75
2023/07/21 03:01:54;;;;;;;17.95;16.15;;;14.60;88.60;;;;;;4987528;28;20069;-74
2023/07/21 03:04:27;;;;;;;15.90;14.27;;;14.60;88.50;;;;;;4987816;28;20026;-75
2023/07/21 03:06:53;;;;;;;15.30;13.70;;;14.50;88.50;;;;;;4995388;28;20120;-75
2023/07/21 03:09:19;;;;;;;17.05;15.25;;;14.50;88.40;;;;;;4996323;28;20069;-75
2023/07/21 03:11:45;;;;;;;17.45;13.95;;;14.50;88.40;;;;;;4994193;28;20034;-74
2023/07/21 03:14:10;;;;;;;16.42;14.82;;;14.50;88.30;;;;;;4990010;28;20030;-75
2023/07/21 03:16:36;;;;;;;16.73;15.10;;;14.40;88.10;;;;;;4992819;28;20273;-74
2023/07/21 03:19:02;;;;;;;16.83;15.23;;;14.40;87.90;;;;;;4989409;28;20027;-74
2023/07/21 03:21:28;;;;;;;16.45;14.85;;;14.40;87.90;;;;;;4989530;28;20382;-74
2023/07/21 03:23:55;;;;;;;17.15;15.40;;;14.30;88.00;;;;;;4996201;28;20029;-74
2023/07/21 03:26:21;;;;;;;16.48;14.88;;;14.30;88.10;;;;;;4989689;28;20475;-76
2023/07/21 03:28:47;;;;;;;16.67;14.93;;;14.30;88.30;;;;;;5007040;28;20030;-74
2023/07/21 03:31:13;;;;;;;16.92;15.13;;;14.20;88.30;;;;;;4990183;28;20050;-74
2023/07/21 03:33:39;;;;;;;16.83;15.13;;;14.30;88.30;;;;;;4996434;28;20057;-76
2023/07/21 03:36:05;;;;;;;15.90;14.38;;;14.20;88.40;;;;;;4992386;28;20037;-74
2023/07/21 03:38:37;;;;;;;15.98;14.38;;;14.20;88.60;;;;;;4989515;28;20045;-75
2023/07/21 03:41:05;;;;;;;17.35;15.55;;;14.20;88.70;;;;;;4987387;28;20588;-76
2023/07/21 03:43:31;;;;;;;17.08;15.32;;;14.20;88.70;;;;;;4985191;28;20041;-74
2023/07/21 03:46:03;;;;;;;17.35;15.57;;;14.20;88.90;;;;;;4993739;28;20140;-75
2023/07/21 03:48:30;;;;;;;15.43;13.93;;;14.10;89.00;;;;;;4986856;28;20615;-75
2023/07/21 03:51:00;;;;;;;16.92;15.23;;;14.10;89.10;;;;;;4992542;28;20405;-74
2023/07/21 03:53:27;;;;;;;17.40;15.70;;;14.10;89.20;;;;;;4990602;28;20045;-74
2023/07/21 03:55:53;;;;;;;17.38;15.57;;;14.20;89.30;;;;;;5006441;28;20070;-76
2023/07/21 03:58:19;;;;;;;17.65;15.85;;;14.20;89.30;;;;;;4984662;28;20105;-74
2023/07/21 04:00:45;;;;;;;18.27;16.38;;;14.20;89.40;;;;;;4987757;28;20158;-75
2023/07/21 04:03:11;;;;;;;16.55;14.70;;;14.20;89.30;;;;;;4989544;28;20049;-74
2023/07/21 04:05:37;;;;;;;18.73;15.65;;;14.20;89.10;;;;;;4994548;28;20534;-75
2023/07/21 04:08:03;;;;;;;19.05;17.13;;;14.20;89.10;;;;;;4990540;28;20027;-76
2023/07/21 04:10:32;;;;;;;16.38;14.77;;;14.20;89.00;;;;;;4984955;28;20129;-75
2023/07/21 04:12:58;;;;;;;17.27;14.88;;;14.20;89.20;;;;;;4991422;28;20027;-75
2023/07/21 04:15:27;;;;;;;16.73;15.02;;;14.20;89.00;;;;;;4986932;28;20246;-74
2023/07/21 04:17:53;;;;;;;15.82;14.25;;;14.20;89.00;;;;;;5001652;28;20046;-76
2023/07/21 04:20:20;;;;;;;16.27;14.57;;;14.30;88.90;;;;;;4990008;28;20488;-74
2023/07/21 04:22:45;;;;;;;16.77;15.00;;;14.30;88.70;;;;;;4991608;28;20065;-73
2023/07/21 04:25:12;;;;;;;19.65;17.63;;;14.30;88.50;;;;;;4986819;28;20046;-73
2023/07/21 04:27:38;;;;;;;17.60;15.90;;;14.30;88.50;;;;;;4987909;28;20030;-74
2023/07/21 04:30:04;;;;;;;17.90;16.10;;;14.40;88.60;;;;;;4985972;28;20054;-75
2023/07/21 04:32:33;;;;;;;20.75;18.65;;;14.40;88.60;;;;;;4985748;28;20030;-75
2023/07/21 04:34:59;;;;;;;20.55;18.55;;;14.50;88.50;;;;;;5003856;28;20050;-76
2023/07/21 04:37:25;;;;;;;20.35;18.25;;;14.60;88.50;;;;;;4993201;28;20015;-73
2023/07/21 04:39:51;;;;;;;23.20;20.85;;;14.70;88.50;;;;;;4991292;28;20053;-75
2023/07/21 04:42:17;;;;;;;22.73;20.52;;;14.70;88.50;;;;;;4979620;28;20034;-76
2023/07/21 04:44:44;;;;;;;19.15;17.15;;;14.70;88.20;;;;;;4988599;28;20034;-74
2023/07/21 04:47:10;;;;;;;20.55;18.55;;;14.80;88.30;;;;;;4985917;28;20447;-74
2023/07/21 04:49:36;;;;;;;24.73;22.05;;;14.80;88.10;;;;;;4986432;28;20041;-76
2023/07/21 04:52:03;;;;;;;23.98;21.67;;;14.80;87.90;;;;;;4987163;28;20053;-75
2023/07/21 04:54:29;;;;;;;23.17;20.88;;;14.90;87.90;;;;;;4987995;28;20466;-74
2023/07/21 04:56:55;;;;;;;22.98;20.67;;;14.90;87.80;;;;;;4992166;28;20034;-74
2023/07/21 04:59:20;;;;;;;25.05;22.40;;;15.00;87.80;;;;;;4997822;28;20030;-73
2023/07/21 05:01:47;;;;;;;24.50;21.98;;;15.00;87.80;;;;;;4987922;28;20038;-74
2023/07/21 05:04:14;;;;;;;27.05;24.25;;;15.00;88.00;;;;;;4986759;28;20039;-74
2023/07/21 05:06:43;;;;;;;27.10;24.50;;;15.10;88.00;;;;;;4990952;28;20879;-74
2023/07/21 05:09:09;;;;;;;28.25;25.35;;;15.20;88.10;;;;;;4992788;28;20655;-76
2023/07/21 05:11:35;;;;;;;25.45;22.92;;;15.30;88.10;;;;;;4982591;28;20136;-75
2023/07/21 05:14:03;;;;;;;30.48;26.92;;;15.30;87.90;;;;;;4983280;28;20054;-75
2023/07/21 05:16:29;;;;;;;26.90;24.15;;;15.40;87.50;;;;;;4984323;28;20047;-74
2023/07/21 05:18:55;;;;;;;25.55;23.15;;;15.40;87.60;;;;;;4996372;28;20026;-75
2023/07/21 05:21:21;;;;;;;27.95;25.25;;;15.50;87.60;;;;;;4993895;28;20042;-75
2023/07/21 05:23:46;;;;;;;30.60;27.60;;;15.60;87.50;;;;;;4993067;28;20437;-74
2023/07/21 05:26:12;;;;;;;30.23;27.25;;;15.60;87.20;;;;;;4985555;28;20042;-77
2023/07/21 05:28:38;;;;;;;29.40;26.45;;;15.70;87.50;;;;;;4991876;28;20433;-76
2023/07/21 05:31:04;;;;;;;27.70;24.90;;;16.10;87.50;;;;;;4989057;28;20132;-76
2023/07/21 05:33:30;;;;;;;27.05;24.27;;;16.50;86.10;;;;;;4994686;28;20406;-75
2023/07/21 05:36:07;;;;;;;25.30;22.85;;;16.90;85.20;;;;;;4990322;28;20035;-74
2023/07/21 05:38:33;;;;;;;24.17;21.75;;;17.10;83.20;;;;;;4990903;28;20014;-74
2023/07/21 05:40:59;;;;;;;26.73;23.67;;;17.40;82.60;;;;;;4989841;28;20146;-76
2023/07/21 05:43:24;;;;;;;24.45;21.98;;;17.50;81.50;;;;;;4994735;28;20035;-75
2023/07/21 05:45:50;;;;;;;25.83;23.05;;;17.50;81.40;;;;;;4994562;28;20054;-74
2023/07/21 05:48:16;;;;;;;25.77;23.10;;;17.60;81.50;;;;;;4989838;28;20042;-74
2023/07/21 05:50:42;;;;;;;28.17;25.40;;;17.70;81.00;;;;;;4992162;28;20495;-75
2023/07/21 05:53:07;;;;;;;28.00;25.10;;;17.70;80.50;;;;;;4994009;28;20013;-75
2023/07/21 05:55:33;;;;;;;29.88;26.95;;;17.70;80.90;;;;;;5001741;28;20487;-74
2023/07/21 05:57:59;;;;;;;28.17;25.17;;;17.80;81.00;;;;;;4991186;28;20468;-75
2023/07/21 06:00:25;;;;;;;27.17;24.38;;;18.30;79.50;;;;;;4988621;28;20038;-75
2023/07/21 06:02:51;;;;;;;25.95;23.30;;;18.90;78.40;;;;;;4998689;28;20037;-75
2023/07/21 06:05:17;;;;;;;26.73;24.02;;;19.10;76.60;;;;;;4991035;28;20501;-73
2023/07/21 06:07:44;;;;;;;26.38;23.73;;;19.20;76.10;;;;;;4992338;28;20129;-74
2023/07/21 06:10:12;;;;;;;23.77;21.38;;;19.10;75.80;;;;;;4985309;28;20114;-74
2023/07/21 06:12:38;;;;;;;27.13;24.35;;;19.00;76.70;;;;;;4990296;28;20092;-74
2023/07/21 06:15:08;;;;;;;26.65;23.98;;;18.70;76.80;;;;;;4994337;28;20022;-74
2023/07/21 06:17:33;;;;;;;27.50;24.73;;;18.40;77.70;;;;;;4989044;28;20486;-73
2023/07/21 06:20:00;;;;;;;26.50;23.70;;;18.10;78.60;;;;;;5004549;28;20033;-75
2023/07/21 06:22:26;;;;;;;26.77;24.05;;;17.80;79.50;;;;;;4994485;28;20727;-74
2023/07/21 06:24:52;;;;;;;26.25;23.52;;;17.70;80.60;;;;;;4986348;28;20023;-76
2023/07/21 06:27:18;;;;;;;26.42;23.63;;;17.50;81.20;;;;;;4997562;28;20458;-74
2023/07/21 06:29:44;;;;;;;27.10;24.02;;;17.50;81.40;;;;;;4989467;28;20030;-73
2023/07/21 06:32:09;;;;;;;29.98;23.40;;;17.20;82.00;;;;;;4990694;28;20037;-75
2023/07/21 06:34:36;;;;;;;24.83;21.92;;;17.40;83.00;;;;;;4990688;28;20034;-75
2023/07/21 06:37:02;;;;;;;24.17;21.67;;;17.60;82.40;;;;;;4994781;28;20042;-74
2023/07/21 06:39:28;;;;;;;26.38;23.63;;;17.60;81.90;;;;;;4997603;28;20091;-74
2023/07/21 06:41:54;;;;;;;26.25;21.75;;;17.70;82.00;;;;;;4990685;28;20030;-75
2023/07/21 06:44:20;;;;;;;25.65;21.73;;;17.70;81.30;;;;;;4998071;28;20061;-75
2023/07/21 06:46:51;;;;;;;22.48;19.83;;;17.90;81.40;;;;;;4993058;28;20069;-74
2023/07/21 06:49:17;;;;;;;22.77;19.30;;;18.10;80.40;;;;;;4992282;28;20034;-74
2023/07/21 06:51:43;;;;;;;24.85;21.10;;;18.10;79.70;;;;;;4991806;28;20053;-74
2023/07/21 06:54:09;;;;;;;24.70;19.50;;;18.10;80.30;;;;;;4993002;28;20031;-75
2023/07/21 06:56:35;;;;;;;21.42;18.60;;;18.10;79.80;;;;;;4992000;28;20038;-76
2023/07/21 06:59:01;;;;;;;22.30;18.75;;;18.10;80.30;;;;;;4990561;28;20368;-75
2023/07/21 07:01:26;;;;;;;22.40;19.38;;;18.10;80.40;;;;;;4991115;28;20062;-75
2023/07/21 07:03:54;;;;;;;25.25;19.60;;;18.10;80.70;;;;;;4993901;28;20475;-74
2023/07/21 07:06:19;;;;;;;23.33;19.42;;;18.10;80.80;;;;;;4995648;28;20036;-74
2023/07/21 07:08:46;;;;;;;22.63;18.08;;;18.10;80.20;;;;;;4993609;28;20025;-75
2023/07/21 07:11:12;;;;;;;22.08;18.33;;;18.20;81.00;;;;;;4990470;28;20043;-76
2023/07/21 07:13:38;;;;;;;21.70;19.30;;;18.20;80.40;;;;;;4993371;28;20072;-74
2023/07/21 07:16:03;;;;;;;22.75;18.45;;;18.10;81.00;;;;;;4986792;28;20039;-75
2023/07/21 07:18:29;;;;;;;23.58;18.52;;;18.10;81.30;;;;;;4991013;28;20482;-74
2023/07/21 07:20:56;;;;;;;20.42;16.20;;;18.10;81.10;;;;;;4993109;28;20073;-74
2023/07/21 07:23:23;;;;;;;19.40;17.30;;;18.20;80.90;;;;;;4985711;28;20026;-74
2023/07/21 07:25:50;;;;;;;23.77;17.25;;;18.30;80.80;;;;;;4993407;28;20030;-74
2023/07/21 07:28:17;;;;;;;23.23;18.80;;;18.40;81.30;;;;;;4994721;28;20030;-73
2023/07/21 07:30:43;;;;;;;23.35;17.08;;;18.60;80.90;;;;;;4996162;28;20081;-75
2023/07/21 07:33:08;;;;;;;23.65;16.48;;;19.00;79.60;;;;;;4992196;28;20486;-75
2023/07/21 07:35:34;;;;;;;20.48;16.75;;;19.00;78.50;;;;;;4987215;28;20442;-74
2023/07/21 07:38:00;;;;;;;21.83;16.63;;;19.00;78.10;;;;;;4992805;28;20056;-72
2023/07/21 07:40:26;;;;;;;22.45;15.77;;;19.20;78.20;;;;;;5003126;28;20050;-73
2023/07/21 07:42:51;;;;;;;19.67;14.23;;;19.50;76.90;;;;;;4999151;28;20030;-73
2023/07/21 07:45:17;;;;;;;19.02;14.52;;;19.80;77.20;;;;;;4993498;28;20052;-73
2023/07/21 07:47:44;;;;;;;17.45;14.60;;;20.10;75.00;;;;;;4991074;28;20036;-73
2023/07/21 07:50:11;;;;;;;18.77;13.38;;;20.30;73.70;;;;;;4989492;28;20062;-73
2023/07/21 07:52:39;;;;;;;16.92;13.65;;;20.30;73.10;;;;;;4993343;28;20441;-75
2023/07/21 07:55:05;;;;;;;19.80;14.55;;;20.50;71.60;;;;;;4987248;28;20034;-74
2023/07/21 07:57:31;;;;;;;15.80;13.68;;;20.50;72.60;;;;;;4990870;28;20022;-76
2023/07/21 07:59:57;;;;;;;17.02;13.18;;;20.60;72.50;;;;;;4989132;28;20537;-74
2023/07/21 08:02:23;;;;;;;15.50;13.00;;;20.90;71.70;;;;;;4990683;28;20057;-74
2023/07/21 08:04:48;;;;;;;16.92;12.27;;;20.90;70.70;;;;;;4993701;28;20493;-74
2023/07/21 08:07:16;;;;;;;15.02;11.93;;;20.90;70.00;;;;;;4986991;28;20113;-77
2023/07/21 08:09:41;;;;;;;15.20;12.23;;;20.70;67.70;;;;;;4986084;28;20027;-74
2023/07/21 08:12:08;;;;;;;15.10;11.80;;;20.60;70.00;;;;;;4983470;28;20077;-73
2023/07/21 08:14:33;;;;;;;13.80;10.88;;;20.80;69.00;;;;;;4989374;28;20498;-75
2023/07/21 08:17:02;;;;;;;15.13;10.60;;;21.20;67.90;;;;;;4989226;28;20046;-74
2023/07/21 08:19:32;;;;;;;14.25;8.88;;;21.20;67.70;;;;;;4987634;28;20041;-75
2023/07/21 08:22:01;;;;;;;12.13;8.40;;;21.00;65.20;;;;;;4987439;28;20035;-74
2023/07/21 08:24:27;;;;;;;12.05;8.75;;;20.70;66.30;;;;;;4988912;28;20029;-74
2023/07/21 08:26:53;;;;;;;11.73;8.23;;;20.80;65.70;;;;;;5007403;28;20152;-74
2023/07/21 08:29:19;;;;;;;12.77;8.52;;;20.90;64.20;;;;;;4989955;28;20133;-74
2023/07/21 08:31:44;;;;;;;12.50;8.20;;;21.30;64.00;;;;;;4985051;28;20034;-75
2023/07/21 08:34:10;;;;;;;14.07;7.53;;;21.40;64.80;;;;;;4985547;28;20087;-75
2023/07/21 08:36:35;;;;;;;9.38;6.40;;;21.80;62.50;;;;;;4985609;28;20042;-74
2023/07/21 08:39:01;;;;;;;8.93;5.68;;;22.20;60.00;;;;;;4986370;28;20382;-74
2023/07/21 08:41:27;;;;;;;8.73;5.22;;;22.20;58.80;;;;;;4989101;28;20524;-76
2023/07/21 08:43:54;;;;;;;7.88;4.70;;;22.40;57.10;;;;;;4988040;28;20549;-75
2023/07/21 08:46:20;;;;;;;7.68;4.90;;;22.30;56.60;;;;;;4989492;28;20061;-75
2023/07/21 08:48:48;;;;;;;7.97;4.90;;;22.60;57.20;;;;;;4981288;28;20491;-74
2023/07/21 08:51:14;;;;;;;8.68;4.47;;;22.30;56.20;;;;;;5003606;28;20055;-73
2023/07/21 08:53:40;;;;;;;9.27;5.38;;;22.40;55.70;;;;;;4989305;28;20034;-75
2023/07/21 08:56:06;;;;;;;12.45;5.90;;;22.60;56.40;;;;;;4983977;28;20085;-73
2023/07/21 08:58:32;;;;;;;11.20;6.55;;;22.80;55.90;;;;;;4990288;28;20485;-73
2023/07/21 09:00:58;;;;;;;12.35;8.38;;;23.10;55.40;;;;;;4990008;28;20042;-73
2023/07/21 09:03:28;;;;;;;14.77;10.95;;;23.10;56.10;;;;;;4994921;28;20026;-75
2023/07/21 09:05:59;;;;;;;15.05;13.35;;;22.90;56.30;;;;;;4991180;28;20054;-76
2023/07/21 09:08:31;;;;;;;17.60;15.82;;;22.10;59.50;;;;;;4997829;28;20019;-74
2023/07/21 09:11:01;;;;;;;16.92;15.23;;;21.60;62.00;;;;;;4983220;28;20042;-75
2023/07/21 09:13:28;;;;;;;20.55;18.55;;;21.70;63.90;;;;;;4991847;28;20479;-75
2023/07/21 09:15:55;;;;;;;22.85;20.73;;;21.50;65.60;;;;;;4989341;28;20053;-74
2023/07/21 09:18:35;;;;;;;22.10;20.08;;;21.10;67.60;;;;;;4985883;28;20030;-75
2023/07/21 09:21:01;;;;;;;20.67;18.60;;;20.80;67.80;;;;;;4992877;28;20092;-76
2023/07/21 09:23:29;;;;;;;19.42;17.52;;;20.90;66.00;;;;;;4993399;28;20504;-75
2023/07/21 09:25:57;;;;;;;17.20;15.43;;;21.40;64.30;;;;;;4990105;28;20124;-74
2023/07/21 09:28:43;;;;;;;14.65;13.15;;;22.00;62.60;;;;;;4988660;28;20500;-73
2023/07/21 09:31:09;;;;;;;13.48;11.52;;;22.10;61.00;;;;;;4987172;28;20073;-75
2023/07/21 09:33:43;;;;;;;13.80;11.15;;;22.10;60.50;;;;;;4988343;28;20479;-76
2023/07/21 09:36:16;;;;;;;15.00;11.48;;;22.60;60.90;;;;;;5007826;28;20128;-76
2023/07/21 09:38:43;;;;;;;14.20;11.30;;;23.30;57.90;;;;;;4991744;28;20431;-73
2023/07/21 09:41:11;;;;;;;12.05;10.27;;;23.40;56.10;;;;;;4992579;28;20053;-75
2023/07/21 09:43:38;;;;;;;12.77;9.20;;;23.00;57.40;;;;;;4990390;28;20073;-76
2023/07/21 09:46:07;;;;;;;14.95;10.88;;;22.50;57.90;;;;;;5012831;28;20038;-76
2023/07/21 09:48:33;;;;;;;19.50;12.48;;;22.00;60.40;;;;;;4994339;28;20018;-76
2023/07/21 09:51:04;;;;;;;12.32;10.82;;;21.10;64.70;;;;;;4992748;28;20066;-77
2023/07/21 09:53:37;;;;;;;11.95;9.98;;;20.50;67.60;;;;;;5003452;28;20050;-75
2023/07/21 09:56:04;;;;;;;12.07;10.00;;;19.60;70.10;;;;;;5003716;28;20030;-78
2023/07/21 09:58:33;;;;;;;15.45;10.65;;;19.40;72.90;;;;;;4995358;28;20076;-73
2023/07/21 10:01:04;;;;;;;13.38;11.00;;;19.20;74.40;;;;;;4991471;28;20038;-75
2023/07/21 10:03:31;;;;;;;14.25;11.48;;;19.30;76.00;;;;;;4989697;28;20026;-74
2023/07/21 10:05:59;;;;;;;13.98;10.77;;;19.60;76.00;;;;;;4995259;28;20117;-74
2023/07/21 10:08:31;;;;;;;13.68;10.80;;;19.80;77.70;;;;;;4974645;28;20253;-75
2023/07/21 10:10:59;;;;;;;13.82;10.18;;;20.10;76.80;;;;;;4982344;28;20054;-74
2023/07/21 10:13:28;;;;;;;11.18;9.30;;;20.20;75.70;;;;;;4978197;28;20060;-75
2023/07/21 10:16:09;;;;;;;10.45;8.82;;;20.30;73.90;;;;;;4982845;28;20042;-75
2023/07/21 10:18:36;;;;;;;13.50;9.25;;;20.80;73.40;;;;;;4989704;28;20041;-75
2023/07/21 10:21:03;;;;;;;11.35;9.02;;;21.40;71.30;;;;;;4982330;28;20467;-74
2023/07/21 10:23:38;;;;;;;12.98;9.77;;;22.10;69.40;;;;;;4983892;28;20411;-75
2023/07/21 10:26:08;;;;;;;15.40;9.43;;;22.40;65.50;;;;;;4986135;28;20125;-75
2023/07/21 10:28:44;;;;;;;13.50;9.45;;;22.70;64.60;;;;;;4985914;28;20022;-75
2023/07/21 10:31:23;;;;;;;15.20;10.40;;;23.00;64.70;;;;;;4984256;28;20130;-75
2023/07/21 10:34:04;;;;;;;13.77;9.73;;;23.40;62.20;;;;;;4980904;28;20037;-74
2023/07/21 10:36:44;;;;;;;17.35;10.20;;;23.40;62.50;;;;;;5000299;28;20042;-74
2023/07/21 10:39:11;;;;;;;16.05;10.57;;;23.40;61.30;;;;;;4985635;28;20454;-75
2023/07/21 10:41:41;;;;;;;16.92;10.60;;;23.30;60.70;;;;;;4987690;28;20026;-75
2023/07/21 10:44:11;;;;;;;15.75;11.25;;;22.80;58.50;;;;;;4986347;28;20528;-74
2023/07/21 10:46:38;;;;;;;14.73;10.10;;;22.10;58.30;;;;;;4981646;28;20200;-74
2023/07/21 10:49:09;;;;;;;14.35;9.98;;;21.30;59.60;;;;;;4988884;28;20022;-73
2023/07/21 10:51:36;;;;;;;13.75;10.25;;;20.90;60.10;;;;;;4993549;28;20100;-74
2023/07/21 10:54:03;;;;;;;13.75;9.65;;;21.30;61.10;;;;;;4990217;28;20034;-76
2023/07/21 10:56:29;;;;;;;13.85;9.65;;;21.60;59.70;;;;;;4988716;28;20070;-75
2023/07/21 10:58:55;;;;;;;17.58;10.57;;;22.10;59.40;;;;;;4997260;28;20053;-75
2023/07/21 11:01:22;;;;;;;13.75;9.60;;;22.20;57.10;;;;;;4991551;28;20146;-76
2023/07/21 11:03:48;;;;;;;12.48;8.95;;;22.00;57.00;;;;;;5012857;28;20810;-75
2023/07/21 11:06:16;;;;;;;11.57;7.65;;;22.00;57.30;;;;;;5003165;28;20034;-74
2023/07/21 11:08:43;;;;;;;13.35;8.60;;;21.70;54.70;;;;;;4989404;28;20038;-75
2023/07/21 11:11:09;;;;;;;10.85;7.80;;;21.90;54.70;;;;;;4988539;28;20120;-74
2023/07/21 11:13:39;;;;;;;11.98;7.95;;;22.10;52.90;;;;;;4985357;28;20117;-74
2023/07/21 11:16:06;;;;;;;13.00;8.00;;;22.20;53.00;;;;;;4987243;28;20022;-74
2023/07/21 11:18:33;;;;;;;10.85;7.90;;;22.50;52.30;;;;;;4990778;28;20395;-74
2023/07/21 11:20:58;;;;;;;11.65;8.40;;;22.60;52.40;;;;;;4985317;28;20371;-74
2023/07/21 11:23:26;;;;;;;9.60;8.07;;;22.20;51.70;;;;;;4988366;28;20023;-75
2023/07/21 11:26:10;;;;;;;11.75;8.25;;;22.10;52.60;;;;;;4988569;28;20073;-74
2023/07/21 11:28:40;;;;;;;11.93;7.70;;;22.20;53.30;;;;;;4986359;28;20026;-74
2023/07/21 11:31:16;;;;;;;12.05;7.97;;;22.30;52.00;;;;;;4985810;28;20659;-75
2023/07/21 11:33:47;;;;;;;11.38;7.45;;;22.30;52.40;;;;;;5009147;28;20080;-74
2023/07/21 11:36:21;;;;;;;12.27;6.72;;;22.40;51.20;;;;;;4992707;28;20049;-75
2023/07/21 11:39:01;;;;;;;11.88;7.70;;;22.50;51.20;;;;;;4994005;28;20037;-74
2023/07/21 11:41:39;;;;;;;11.25;7.38;;;22.80;48.40;;;;;;4987317;28;20078;-75
2023/07/21 11:44:10;;;;;;;9.23;7.20;;;23.00;47.90;;;;;;5005035;28;20042;-75
2023/07/21 11:46:38;;;;;;;10.48;7.50;;;22.60;47.80;;;;;;4994283;28;20054;-76
2023/07/21 11:49:10;;;;;;;10.32;7.63;;;22.80;48.40;;;;;;4987549;28;20772;-75
2023/07/21 11:51:44;;;;;;;10.38;6.53;;;22.80;47.40;;;;;;4985585;28;20058;-75
2023/07/21 11:54:24;;;;;;;11.63;7.13;;;23.00;47.80;;;;;;4993804;28;20080;-75
2023/07/21 11:56:51;;;;;;;10.57;7.38;;;23.10;46.20;;;;;;4988042;28;20386;-76
2023/07/21 11:59:18;;;;;;;10.48;7.07;;;22.80;46.90;;;;;;4992167;28;20109;-75
2023/07/21 12:01:44;;;;;;;13.50;7.47;;;22.80;47.40;;;;;;4993086;28;20042;-74
2023/07/21 12:04:10;;;;;;;10.32;7.10;;;23.00;47.40;;;;;;4984359;28;20023;-76
2023/07/21 12:06:36;;;;;;;10.18;7.43;;;23.40;46.60;;;;;;4992627;28;20045;-75
2023/07/21 12:09:09;;;;;;;11.50;7.18;;;23.50;45.70;;;;;;4988417;28;20069;-76
2023/07/21 12:11:35;;;;;;;10.10;7.22;;;22.70;44.50;;;;;;4989334;28;20487;-75
2023/07/21 12:14:02;;;;;;;9.65;6.65;;;22.60;46.60;;;;;;4988864;28;20034;-74
2023/07/21 12:16:29;;;;;;;9.27;6.88;;;22.80;46.20;;;;;;4990603;28;20116;-78
2023/07/21 12:18:56;;;;;;;9.85;7.20;;;22.80;45.40;;;;;;4993612;28;20018;-77
2023/07/21 12:21:23;;;;;;;10.57;6.57;;;22.70;44.00;;;;;;4988561;28;20073;-75
2023/07/21 12:23:49;;;;;;;11.02;6.85;;;22.60;45.00;;;;;;5004846;28;20022;-79
2023/07/21 12:26:14;;;;;;;10.98;6.70;;;22.80;45.70;;;;;;5003808;28;20106;-77
2023/07/21 12:28:41;;;;;;;10.85;7.22;;;22.70;45.70;;;;;;5004111;28;20053;-74
2023/07/21 12:31:08;;;;;;;11.32;7.55;;;22.90;45.20;;;;;;4990862;28;20030;-75
2023/07/21 12:33:35;;;;;;;11.65;7.45;;;22.50;45.80;;;;;;4996215;28;20475;-75